sensor_id;sensor_type;location;lat;lon;timestamp;temperature;humidity
66608;DHT22;53462;39.616;8.824;2024-01-11T00:00:31;9.10;99.90
66608;DHT22;53462;39.616;8.824;2024-01-11T00:02:57;9.00;99.90
66608;DHT22;53462;39.616;8.824;2024-01-11T00:05:23;9.00;99.90
66608;DHT22;53462;39.616;8.824;2024-01-11T00:07:49;9.00;99.90
66608;DHT22;53462;39.616;8.824;2024-01-11T00:10:16;8.90;99.90
66608;DHT22;53462;39.616;8.824;2024-01-11T00:12:42;8.90;99.90
66608;DHT22;53462;39.616;8.824;2024-01-11T00:15:08;8.90;99.90
66608;DHT22;53462;39.616;8.824;2024-01-11T00:17:34;8.80;99.90
66608;DHT22;53462;39.616;8.824;2024-01-11T00:20:00;8.90;99.90
66608;DHT22;53462;39.616;8.824;2024-01-11T00:22:26;8.90;99.90
66608;DHT22;53462;39.616;8.824;2024-01-11T00:24:53;8.90;99.90
66608;DHT22;53462;39.616;8.824;2024-01-11T00:27:19;8.70;99.90
66608;DHT22;53462;39.616;8.824;2024-01-11T00:29:45;8.70;99.90
66608;DHT22;53462;39.616;8.824;2024-01-11T00:32:10;8.70;99.90
66608;DHT22;53462;39.616;8.824;2024-01-11T00:34:36;8.70;99.90
66608;DHT22;53462;39.616;8.824;2024-01-11T00:37:02;8.70;99.90
66608;DHT22;53462;39.616;8.824;2024-01-11T00:39:28;8.60;99.90
66608;DHT22;53462;39.616;8.824;2024-01-11T00:41:55;8.60;99.90
66608;DHT22;53462;39.616;8.824;2024-01-11T00:44:21;8.70;99.90
66608;DHT22;53462;39.616;8.824;2024-01-11T00:46:47;8.70;99.90
66608;DHT22;53462;39.616;8.824;2024-01-11T00:49:13;8.80;99.90
66608;DHT22;53462;39.616;8.824;2024-01-11T00:51:39;8.80;99.90
66608;DHT22;53462;39.616;8.824;2024-01-11T00:54:05;8.80;99.90
66608;DHT22;53462;39.616;8.824;2024-01-11T00:56:31;8.80;99.90
66608;DHT22;53462;39.616;8.824;2024-01-11T00:58:57;8.70;99.90
66608;DHT22;53462;39.616;8.824;2024-01-11T01:01:23;8.60;99.90
66608;DHT22;53462;39.616;8.824;2024-01-11T01:03:49;8.60;99.90
66608;DHT22;53462;39.616;8.824;2024-01-11T01:06:14;8.60;99.90
66608;DHT22;53462;39.616;8.824;2024-01-11T01:08:40;8.70;99.90
66608;DHT22;53462;39.616;8.824;2024-01-11T01:11:06;8.80;99.90
66608;DHT22;53462;39.616;8.824;2024-01-11T01:13:32;8.80;99.90
66608;DHT22;53462;39.616;8.824;2024-01-11T01:15:58;8.70;99.90
66608;DHT22;53462;39.616;8.824;2024-01-11T01:18:24;8.70;99.90
66608;DHT22;53462;39.616;8.824;2024-01-11T01:20:50;8.70;99.90
66608;DHT22;53462;39.616;8.824;2024-01-11T01:23:16;8.70;99.90
66608;DHT22;53462;39.616;8.824;2024-01-11T01:25:43;8.60;99.90
66608;DHT22;53462;39.616;8.824;2024-01-11T01:28:09;8.60;99.90
66608;DHT22;53462;39.616;8.824;2024-01-11T01:30:35;8.60;99.90
66608;DHT22;53462;39.616;8.824;2024-01-11T01:33:02;8.70;99.90
66608;DHT22;53462;39.616;8.824;2024-01-11T01:35:28;8.60;99.90
66608;DHT22;53462;39.616;8.824;2024-01-11T01:37:55;8.70;99.90
66608;DHT22;53462;39.616;8.824;2024-01-11T01:40:21;8.60;99.90
66608;DHT22;53462;39.616;8.824;2024-01-11T01:42:47;8.60;99.90
66608;DHT22;53462;39.616;8.824;2024-01-11T01:45:15;8.60;99.90
66608;DHT22;53462;39.616;8.824;2024-01-11T01:47:42;8.50;99.90
66608;DHT22;53462;39.616;8.824;2024-01-11T01:50:10;8.60;99.90
66608;DHT22;53462;39.616;8.824;2024-01-11T01:52:36;8.50;99.90
66608;DHT22;53462;39.616;8.824;2024-01-11T01:55:04;8.50;99.90
66608;DHT22;53462;39.616;8.824;2024-01-11T01:57:33;8.70;99.90
66608;DHT22;53462;39.616;8.824;2024-01-11T02:00:00;8.70;99.90
66608;DHT22;53462;39.616;8.824;2024-01-11T02:02:28;8.70;99.90
66608;DHT22;53462;39.616;8.824;2024-01-11T02:04:55;8.70;99.90
66608;DHT22;53462;39.616;8.824;2024-01-11T02:07:22;8.70;99.90
66608;DHT22;53462;39.616;8.824;2024-01-11T02:09:49;8.70;99.90
66608;DHT22;53462;39.616;8.824;2024-01-11T02:12:16;8.80;99.90
66608;DHT22;53462;39.616;8.824;2024-01-11T02:14:42;8.80;99.90
66608;DHT22;53462;39.616;8.824;2024-01-11T02:17:08;8.80;99.90
66608;DHT22;53462;39.616;8.824;2024-01-11T02:19:34;8.90;99.90
66608;DHT22;53462;39.616;8.824;2024-01-11T02:22:10;8.80;99.90
66608;DHT22;53462;39.616;8.824;2024-01-11T02:24:38;8.70;99.90
66608;DHT22;53462;39.616;8.824;2024-01-11T02:27:05;8.50;99.90
66608;DHT22;53462;39.616;8.824;2024-01-11T02:29:31;8.40;99.90
66608;DHT22;53462;39.616;8.824;2024-01-11T02:31:57;8.30;99.90
66608;DHT22;53462;39.616;8.824;2024-01-11T02:34:25;8.30;99.90
66608;DHT22;53462;39.616;8.824;2024-01-11T02:36:53;8.40;99.90
66608;DHT22;53462;39.616;8.824;2024-01-11T02:39:19;8.50;99.90
66608;DHT22;53462;39.616;8.824;2024-01-11T02:41:46;8.60;99.90
66608;DHT22;53462;39.616;8.824;2024-01-11T02:44:13;8.50;99.90
66608;DHT22;53462;39.616;8.824;2024-01-11T02:46:39;8.50;99.90
66608;DHT22;53462;39.616;8.824;2024-01-11T02:49:04;8.50;99.90
66608;DHT22;53462;39.616;8.824;2024-01-11T02:51:30;8.60;99.90
66608;DHT22;53462;39.616;8.824;2024-01-11T02:53:56;8.50;99.90
66608;DHT22;53462;39.616;8.824;2024-01-11T02:56:23;8.60;99.90
66608;DHT22;53462;39.616;8.824;2024-01-11T02:58:49;8.60;99.90
66608;DHT22;53462;39.616;8.824;2024-01-11T03:01:15;8.60;99.90
66608;DHT22;53462;39.616;8.824;2024-01-11T03:03:41;8.60;99.90
66608;DHT22;53462;39.616;8.824;2024-01-11T03:06:07;8.70;99.90
66608;DHT22;53462;39.616;8.824;2024-01-11T03:08:33;8.60;99.90
66608;DHT22;53462;39.616;8.824;2024-01-11T03:10:59;8.70;99.90
66608;DHT22;53462;39.616;8.824;2024-01-11T03:13:25;8.60;99.90
66608;DHT22;53462;39.616;8.824;2024-01-11T03:15:51;8.60;99.90
66608;DHT22;53462;39.616;8.824;2024-01-11T03:18:17;8.70;99.90
66608;DHT22;53462;39.616;8.824;2024-01-11T03:20:43;8.70;99.90
66608;DHT22;53462;39.616;8.824;2024-01-11T03:23:09;8.80;99.90
66608;DHT22;53462;39.616;8.824;2024-01-11T03:25:35;8.70;99.90
66608;DHT22;53462;39.616;8.824;2024-01-11T03:28:01;8.80;99.90
66608;DHT22;53462;39.616;8.824;2024-01-11T03:30:27;8.90;99.90
66608;DHT22;53462;39.616;8.824;2024-01-11T03:32:53;9.00;99.90
66608;DHT22;53462;39.616;8.824;2024-01-11T03:35:19;9.10;99.90
66608;DHT22;53462;39.616;8.824;2024-01-11T03:37:45;9.10;99.90
66608;DHT22;53462;39.616;8.824;2024-01-11T03:40:12;9.00;99.90
66608;DHT22;53462;39.616;8.824;2024-01-11T03:42:38;8.90;99.90
66608;DHT22;53462;39.616;8.824;2024-01-11T03:45:04;8.90;99.90
66608;DHT22;53462;39.616;8.824;2024-01-11T03:47:30;8.70;99.90
66608;DHT22;53462;39.616;8.824;2024-01-11T03:49:56;8.80;99.90
66608;DHT22;53462;39.616;8.824;2024-01-11T03:52:22;8.80;99.90
66608;DHT22;53462;39.616;8.824;2024-01-11T03:54:48;8.80;99.90
66608;DHT22;53462;39.616;8.824;2024-01-11T03:57:15;8.80;99.90
66608;DHT22;53462;39.616;8.824;2024-01-11T03:59:41;8.90;99.90
66608;DHT22;53462;39.616;8.824;2024-01-11T04:02:07;8.80;99.90
66608;DHT22;53462;39.616;8.824;2024-01-11T04:04:33;8.80;99.90
66608;DHT22;53462;39.616;8.824;2024-01-11T04:06:59;8.80;99.90
66608;DHT22;53462;39.616;8.824;2024-01-11T04:09:25;8.80;99.90
66608;DHT22;53462;39.616;8.824;2024-01-11T04:11:51;8.70;99.90
66608;DHT22;53462;39.616;8.824;2024-01-11T04:14:17;8.80;99.90
66608;DHT22;53462;39.616;8.824;2024-01-11T04:16:43;8.80;99.90
66608;DHT22;53462;39.616;8.824;2024-01-11T04:19:09;8.70;99.90
66608;DHT22;53462;39.616;8.824;2024-01-11T04:21:35;8.60;99.90
66608;DHT22;53462;39.616;8.824;2024-01-11T04:24:04;8.60;99.90
66608;DHT22;53462;39.616;8.824;2024-01-11T04:26:32;8.60;99.90
66608;DHT22;53462;39.616;8.824;2024-01-11T04:28:58;8.60;99.90
66608;DHT22;53462;39.616;8.824;2024-01-11T04:31:28;8.60;99.90
66608;DHT22;53462;39.616;8.824;2024-01-11T04:33:54;8.50;99.90
66608;DHT22;53462;39.616;8.824;2024-01-11T04:36:20;8.40;99.90
66608;DHT22;53462;39.616;8.824;2024-01-11T04:38:46;8.50;99.90
66608;DHT22;53462;39.616;8.824;2024-01-11T04:41:13;8.40;99.90
66608;DHT22;53462;39.616;8.824;2024-01-11T04:43:44;8.40;99.90
66608;DHT22;53462;39.616;8.824;2024-01-11T04:46:17;8.40;99.90
66608;DHT22;53462;39.616;8.824;2024-01-11T04:48:44;8.40;99.90
66608;DHT22;53462;39.616;8.824;2024-01-11T04:51:11;8.40;99.90
66608;DHT22;53462;39.616;8.824;2024-01-11T04:53:38;8.40;99.90
66608;DHT22;53462;39.616;8.824;2024-01-11T04:56:08;8.50;99.90
66608;DHT22;53462;39.616;8.824;2024-01-11T04:58:41;8.50;99.90
66608;DHT22;53462;39.616;8.824;2024-01-11T05:01:12;8.50;99.90
66608;DHT22;53462;39.616;8.824;2024-01-11T05:03:38;8.40;99.90
66608;DHT22;53462;39.616;8.824;2024-01-11T05:06:04;8.40;99.90
66608;DHT22;53462;39.616;8.824;2024-01-11T05:08:30;8.40;99.90
66608;DHT22;53462;39.616;8.824;2024-01-11T05:10:56;8.40;99.90
66608;DHT22;53462;39.616;8.824;2024-01-11T05:13:22;8.40;99.90
66608;DHT22;53462;39.616;8.824;2024-01-11T05:15:48;8.30;99.90
66608;DHT22;53462;39.616;8.824;2024-01-11T05:18:14;8.40;99.90
66608;DHT22;53462;39.616;8.824;2024-01-11T05:20:40;8.40;99.90
66608;DHT22;53462;39.616;8.824;2024-01-11T05:23:06;8.50;99.90
66608;DHT22;53462;39.616;8.824;2024-01-11T05:25:32;8.40;99.90
66608;DHT22;53462;39.616;8.824;2024-01-11T05:28:02;8.50;99.90
66608;DHT22;53462;39.616;8.824;2024-01-11T05:30:29;8.40;99.90
66608;DHT22;53462;39.616;8.824;2024-01-11T05:32:55;8.40;99.90
66608;DHT22;53462;39.616;8.824;2024-01-11T05:35:21;8.30;99.90
66608;DHT22;53462;39.616;8.824;2024-01-11T05:37:50;8.30;99.90
66608;DHT22;53462;39.616;8.824;2024-01-11T05:40:16;8.30;99.90
66608;DHT22;53462;39.616;8.824;2024-01-11T05:42:42;8.30;99.90
66608;DHT22;53462;39.616;8.824;2024-01-11T05:45:08;8.30;99.90
66608;DHT22;53462;39.616;8.824;2024-01-11T05:47:34;8.30;99.90
66608;DHT22;53462;39.616;8.824;2024-01-11T05:50:00;8.30;99.90
66608;DHT22;53462;39.616;8.824;2024-01-11T05:52:26;8.20;99.90
66608;DHT22;53462;39.616;8.824;2024-01-11T05:54:52;8.20;99.90
66608;DHT22;53462;39.616;8.824;2024-01-11T05:57:17;8.20;99.90
66608;DHT22;53462;39.616;8.824;2024-01-11T05:59:46;8.20;99.90
66608;DHT22;53462;39.616;8.824;2024-01-11T06:02:13;8.10;99.90
66608;DHT22;53462;39.616;8.824;2024-01-11T06:04:39;8.00;99.90
66608;DHT22;53462;39.616;8.824;2024-01-11T06:07:05;7.90;99.90
66608;DHT22;53462;39.616;8.824;2024-01-11T06:09:31;7.80;99.90
66608;DHT22;53462;39.616;8.824;2024-01-11T06:11:57;7.70;99.90
66608;DHT22;53462;39.616;8.824;2024-01-11T06:14:23;7.60;99.90
66608;DHT22;53462;39.616;8.824;2024-01-11T06:16:49;7.60;99.90
66608;DHT22;53462;39.616;8.824;2024-01-11T06:19:15;7.70;99.90
66608;DHT22;53462;39.616;8.824;2024-01-11T06:21:41;7.80;99.90
66608;DHT22;53462;39.616;8.824;2024-01-11T06:24:07;7.90;99.90
66608;DHT22;53462;39.616;8.824;2024-01-11T06:26:33;7.80;99.90
66608;DHT22;53462;39.616;8.824;2024-01-11T06:28:59;8.00;99.90
66608;DHT22;53462;39.616;8.824;2024-01-11T06:31:25;7.90;99.90
66608;DHT22;53462;39.616;8.824;2024-01-11T06:33:51;8.00;99.90
66608;DHT22;53462;39.616;8.824;2024-01-11T06:36:17;7.90;99.90
66608;DHT22;53462;39.616;8.824;2024-01-11T06:38:43;7.90;99.90
66608;DHT22;53462;39.616;8.824;2024-01-11T06:41:09;8.00;99.90
66608;DHT22;53462;39.616;8.824;2024-01-11T06:43:35;7.90;99.90
66608;DHT22;53462;39.616;8.824;2024-01-11T06:46:04;7.90;99.90
66608;DHT22;53462;39.616;8.824;2024-01-11T06:48:31;7.90;99.90
66608;DHT22;53462;39.616;8.824;2024-01-11T06:50:57;8.00;99.90
66608;DHT22;53462;39.616;8.824;2024-01-11T06:53:23;8.00;99.90
66608;DHT22;53462;39.616;8.824;2024-01-11T06:55:49;7.80;99.90
66608;DHT22;53462;39.616;8.824;2024-01-11T06:58:20;7.80;99.90
66608;DHT22;53462;39.616;8.824;2024-01-11T07:00:46;8.00;99.90
66608;DHT22;53462;39.616;8.824;2024-01-11T07:03:12;8.00;99.90
66608;DHT22;53462;39.616;8.824;2024-01-11T07:05:38;7.90;99.90
66608;DHT22;53462;39.616;8.824;2024-01-11T07:08:04;7.90;99.90
66608;DHT22;53462;39.616;8.824;2024-01-11T07:10:30;7.80;99.90
66608;DHT22;53462;39.616;8.824;2024-01-11T07:12:56;7.70;99.90
66608;DHT22;53462;39.616;8.824;2024-01-11T07:15:22;7.70;99.90
66608;DHT22;53462;39.616;8.824;2024-01-11T07:17:49;7.80;99.90
66608;DHT22;53462;39.616;8.824;2024-01-11T07:20:15;7.80;99.90
66608;DHT22;53462;39.616;8.824;2024-01-11T07:22:42;7.80;99.90
66608;DHT22;53462;39.616;8.824;2024-01-11T07:25:08;7.80;99.90
66608;DHT22;53462;39.616;8.824;2024-01-11T07:27:34;7.80;99.90
66608;DHT22;53462;39.616;8.824;2024-01-11T07:30:01;7.70;99.90
66608;DHT22;53462;39.616;8.824;2024-01-11T07:32:28;7.60;99.90
66608;DHT22;53462;39.616;8.824;2024-01-11T07:34:54;7.90;99.90
66608;DHT22;53462;39.616;8.824;2024-01-11T07:37:20;8.00;99.90
66608;DHT22;53462;39.616;8.824;2024-01-11T07:39:46;8.10;99.90
66608;DHT22;53462;39.616;8.824;2024-01-11T07:42:14;8.10;99.90
66608;DHT22;53462;39.616;8.824;2024-01-11T07:44:40;8.20;99.90
66608;DHT22;53462;39.616;8.824;2024-01-11T07:47:05;8.40;99.90
66608;DHT22;53462;39.616;8.824;2024-01-11T07:49:32;8.60;99.90
66608;DHT22;53462;39.616;8.824;2024-01-11T07:51:58;8.80;99.90
66608;DHT22;53462;39.616;8.824;2024-01-11T07:54:23;8.70;99.90
66608;DHT22;53462;39.616;8.824;2024-01-11T07:56:49;8.90;99.90
66608;DHT22;53462;39.616;8.824;2024-01-11T07:59:15;8.80;99.90
66608;DHT22;53462;39.616;8.824;2024-01-11T08:01:41;8.80;99.90
66608;DHT22;53462;39.616;8.824;2024-01-11T08:04:07;9.00;99.90
66608;DHT22;53462;39.616;8.824;2024-01-11T08:06:33;9.00;99.90
66608;DHT22;53462;39.616;8.824;2024-01-11T08:08:59;9.00;99.90
66608;DHT22;53462;39.616;8.824;2024-01-11T08:11:25;8.80;99.90
66608;DHT22;53462;39.616;8.824;2024-01-11T08:13:51;8.90;99.90
66608;DHT22;53462;39.616;8.824;2024-01-11T08:16:20;9.10;99.90
66608;DHT22;53462;39.616;8.824;2024-01-11T08:18:46;9.10;99.90
66608;DHT22;53462;39.616;8.824;2024-01-11T08:21:15;9.20;99.90
66608;DHT22;53462;39.616;8.824;2024-01-11T08:23:41;9.20;99.90
66608;DHT22;53462;39.616;8.824;2024-01-11T08:26:17;9.30;99.90
66608;DHT22;53462;39.616;8.824;2024-01-11T08:28:47;9.30;99.90
66608;DHT22;53462;39.616;8.824;2024-01-11T08:31:13;9.10;99.90
66608;DHT22;53462;39.616;8.824;2024-01-11T08:33:39;9.10;99.90
66608;DHT22;53462;39.616;8.824;2024-01-11T08:36:06;9.20;99.90
66608;DHT22;53462;39.616;8.824;2024-01-11T08:38:32;9.40;99.90
66608;DHT22;53462;39.616;8.824;2024-01-11T08:40:58;9.30;99.90
66608;DHT22;53462;39.616;8.824;2024-01-11T08:43:27;9.20;99.90
66608;DHT22;53462;39.616;8.824;2024-01-11T08:45:53;9.30;99.90
66608;DHT22;53462;39.616;8.824;2024-01-11T08:48:19;9.40;99.90
66608;DHT22;53462;39.616;8.824;2024-01-11T08:50:46;9.50;99.90
66608;DHT22;53462;39.616;8.824;2024-01-11T08:53:12;9.60;99.90
66608;DHT22;53462;39.616;8.824;2024-01-11T08:55:38;9.70;99.90
66608;DHT22;53462;39.616;8.824;2024-01-11T08:58:04;9.80;99.90
66608;DHT22;53462;39.616;8.824;2024-01-11T09:00:30;9.80;99.90
66608;DHT22;53462;39.616;8.824;2024-01-11T09:02:55;9.80;99.90
66608;DHT22;53462;39.616;8.824;2024-01-11T09:05:21;9.80;99.90
66608;DHT22;53462;39.616;8.824;2024-01-11T09:07:47;9.90;99.90
66608;DHT22;53462;39.616;8.824;2024-01-11T09:10:13;10.10;99.90
66608;DHT22;53462;39.616;8.824;2024-01-11T09:12:39;10.30;99.90
66608;DHT22;53462;39.616;8.824;2024-01-11T09:15:09;10.40;99.90
66608;DHT22;53462;39.616;8.824;2024-01-11T09:17:35;10.50;99.90
66608;DHT22;53462;39.616;8.824;2024-01-11T09:20:02;10.50;99.90
66608;DHT22;53462;39.616;8.824;2024-01-11T09:22:28;10.60;99.90
66608;DHT22;53462;39.616;8.824;2024-01-11T09:24:54;10.70;99.90
66608;DHT22;53462;39.616;8.824;2024-01-11T09:27:20;10.70;99.90
66608;DHT22;53462;39.616;8.824;2024-01-11T09:29:46;10.90;99.90
66608;DHT22;53462;39.616;8.824;2024-01-11T09:32:13;10.90;99.90
66608;DHT22;53462;39.616;8.824;2024-01-11T09:34:39;11.00;99.90
66608;DHT22;53462;39.616;8.824;2024-01-11T09:37:05;11.20;99.90
66608;DHT22;53462;39.616;8.824;2024-01-11T09:39:31;11.30;99.90
66608;DHT22;53462;39.616;8.824;2024-01-11T09:41:59;11.60;99.90
66608;DHT22;53462;39.616;8.824;2024-01-11T09:44:27;11.90;99.90
66608;DHT22;53462;39.616;8.824;2024-01-11T09:46:54;11.90;99.90
66608;DHT22;53462;39.616;8.824;2024-01-11T09:49:22;12.00;99.90
66608;DHT22;53462;39.616;8.824;2024-01-11T09:51:48;12.10;99.90
66608;DHT22;53462;39.616;8.824;2024-01-11T09:54:15;11.90;99.90
66608;DHT22;53462;39.616;8.824;2024-01-11T09:56:43;12.10;99.90
66608;DHT22;53462;39.616;8.824;2024-01-11T09:59:09;12.60;99.90
66608;DHT22;53462;39.616;8.824;2024-01-11T10:01:36;12.90;99.90
66608;DHT22;53462;39.616;8.824;2024-01-11T10:04:03;13.40;99.90
66608;DHT22;53462;39.616;8.824;2024-01-11T10:06:32;14.10;99.90
66608;DHT22;53462;39.616;8.824;2024-01-11T10:09:00;16.30;99.90
66608;DHT22;53462;39.616;8.824;2024-01-11T10:11:25;19.20;81.60
66608;DHT22;53462;39.616;8.824;2024-01-11T10:13:58;16.60;84.20
66608;DHT22;53462;39.616;8.824;2024-01-11T10:16:25;15.90;90.20
66608;DHT22;53462;39.616;8.824;2024-01-11T10:18:54;15.40;91.20
66608;DHT22;53462;39.616;8.824;2024-01-11T10:21:20;16.30;93.60
66608;DHT22;53462;39.616;8.824;2024-01-11T10:23:46;19.10;83.80
66608;DHT22;53462;39.616;8.824;2024-01-11T10:26:15;17.90;82.20
66608;DHT22;53462;39.616;8.824;2024-01-11T10:28:44;17.70;84.90
66608;DHT22;53462;39.616;8.824;2024-01-11T10:31:10;21.70;74.50
66608;DHT22;53462;39.616;8.824;2024-01-11T10:33:36;19.60;70.70
66608;DHT22;53462;39.616;8.824;2024-01-11T10:36:03;18.00;81.60
66608;DHT22;53462;39.616;8.824;2024-01-11T10:38:35;18.00;81.20
66608;DHT22;53462;39.616;8.824;2024-01-11T10:41:04;20.40;76.60
66608;DHT22;53462;39.616;8.824;2024-01-11T10:43:32;23.30;67.10
66608;DHT22;53462;39.616;8.824;2024-01-11T10:46:00;25.50;57.00
66608;DHT22;53462;39.616;8.824;2024-01-11T10:48:31;25.90;52.10
66608;DHT22;53462;39.616;8.824;2024-01-11T10:51:01;25.60;51.60
66608;DHT22;53462;39.616;8.824;2024-01-11T10:53:46;27.80;45.90
66608;DHT22;53462;39.616;8.824;2024-01-11T10:56:16;27.80;42.50
66608;DHT22;53462;39.616;8.824;2024-01-11T10:58:45;28.40;41.90
66608;DHT22;53462;39.616;8.824;2024-01-11T11:01:13;28.40;41.10
66608;DHT22;53462;39.616;8.824;2024-01-11T11:03:39;28.40;39.70
66608;DHT22;53462;39.616;8.824;2024-01-11T11:06:09;28.90;37.80
66608;DHT22;53462;39.616;8.824;2024-01-11T11:08:36;29.10;38.80
66608;DHT22;53462;39.616;8.824;2024-01-11T11:11:04;28.60;37.10
66608;DHT22;53462;39.616;8.824;2024-01-11T11:13:33;28.30;37.90
66608;DHT22;53462;39.616;8.824;2024-01-11T11:16:02;28.90;37.90
66608;DHT22;53462;39.616;8.824;2024-01-11T11:18:32;28.80;37.50
66608;DHT22;53462;39.616;8.824;2024-01-11T11:21:01;27.90;38.00
66608;DHT22;53462;39.616;8.824;2024-01-11T11:23:27;27.00;39.40
66608;DHT22;53462;39.616;8.824;2024-01-11T11:25:54;26.10;41.70
66608;DHT22;53462;39.616;8.824;2024-01-11T11:28:23;24.30;43.60
66608;DHT22;53462;39.616;8.824;2024-01-11T11:30:50;20.80;51.40
66608;DHT22;53462;39.616;8.824;2024-01-11T11:33:18;18.90;59.30
66608;DHT22;53462;39.616;8.824;2024-01-11T11:35:48;18.50;61.50
66608;DHT22;53462;39.616;8.824;2024-01-11T11:38:26;18.20;62.40
66608;DHT22;53462;39.616;8.824;2024-01-11T11:40:53;18.10;65.20
66608;DHT22;53462;39.616;8.824;2024-01-11T11:43:21;17.40;66.90
66608;DHT22;53462;39.616;8.824;2024-01-11T11:45:48;16.90;69.70
66608;DHT22;53462;39.616;8.824;2024-01-11T11:53:38;16.90;67.90
66608;DHT22;53462;39.616;8.824;2024-01-11T11:56:05;16.80;66.50
66608;DHT22;53462;39.616;8.824;2024-01-11T11:58:33;16.60;67.60
66608;DHT22;53462;39.616;8.824;2024-01-11T12:01:00;16.10;68.50
66608;DHT22;53462;39.616;8.824;2024-01-11T12:03:32;16.10;68.10
66608;DHT22;53462;39.616;8.824;2024-01-11T12:05:59;16.00;69.00
66608;DHT22;53462;39.616;8.824;2024-01-11T12:08:26;15.80;70.70
66608;DHT22;53462;39.616;8.824;2024-01-11T12:10:53;15.70;71.40
66608;DHT22;53462;39.616;8.824;2024-01-11T12:13:19;15.70;72.60
66608;DHT22;53462;39.616;8.824;2024-01-11T12:15:46;15.90;68.50
66608;DHT22;53462;39.616;8.824;2024-01-11T12:18:12;15.70;69.80
66608;DHT22;53462;39.616;8.824;2024-01-11T12:20:39;16.20;68.40
66608;DHT22;53462;39.616;8.824;2024-01-11T12:23:06;16.60;66.30
66608;DHT22;53462;39.616;8.824;2024-01-11T12:25:32;16.50;66.70
66608;DHT22;53462;39.616;8.824;2024-01-11T12:27:58;16.50;65.70
66608;DHT22;53462;39.616;8.824;2024-01-11T12:30:25;16.30;67.30
66608;DHT22;53462;39.616;8.824;2024-01-11T12:32:53;16.10;67.90
66608;DHT22;53462;39.616;8.824;2024-01-11T12:35:20;15.80;68.10
66608;DHT22;53462;39.616;8.824;2024-01-11T12:37:56;15.80;68.60
66608;DHT22;53462;39.616;8.824;2024-01-11T12:40:24;15.40;69.90
66608;DHT22;53462;39.616;8.824;2024-01-11T12:42:50;15.20;69.30
66608;DHT22;53462;39.616;8.824;2024-01-11T12:45:22;15.60;69.90
66608;DHT22;53462;39.616;8.824;2024-01-11T12:47:48;16.20;68.20
66608;DHT22;53462;39.616;8.824;2024-01-11T12:50:14;16.60;65.30
66608;DHT22;53462;39.616;8.824;2024-01-11T12:52:40;16.60;65.00
66608;DHT22;53462;39.616;8.824;2024-01-11T12:55:08;17.10;62.80
66608;DHT22;53462;39.616;8.824;2024-01-11T12:57:35;17.30;60.50
66608;DHT22;53462;39.616;8.824;2024-01-11T13:00:11;16.90;61.50
66608;DHT22;53462;39.616;8.824;2024-01-11T13:02:37;17.10;61.50
66608;DHT22;53462;39.616;8.824;2024-01-11T13:05:04;16.80;62.10
66608;DHT22;53462;39.616;8.824;2024-01-11T13:07:30;16.60;62.40
66608;DHT22;53462;39.616;8.824;2024-01-11T13:09:57;16.20;62.40
66608;DHT22;53462;39.616;8.824;2024-01-11T13:12:23;16.20;63.00
66608;DHT22;53462;39.616;8.824;2024-01-11T13:14:49;16.20;63.50
66608;DHT22;53462;39.616;8.824;2024-01-11T13:17:18;15.90;64.60
66608;DHT22;53462;39.616;8.824;2024-01-11T13:19:44;16.60;65.00
66608;DHT22;53462;39.616;8.824;2024-01-11T13:22:10;16.90;63.40
66608;DHT22;53462;39.616;8.824;2024-01-11T13:24:36;16.80;62.30
66608;DHT22;53462;39.616;8.824;2024-01-11T13:27:02;17.00;61.50
66608;DHT22;53462;39.616;8.824;2024-01-11T13:29:29;17.00;62.10
66608;DHT22;53462;39.616;8.824;2024-01-11T13:31:55;17.10;63.30
66608;DHT22;53462;39.616;8.824;2024-01-11T13:34:21;17.10;64.80
66608;DHT22;53462;39.616;8.824;2024-01-11T13:36:47;16.90;65.30
66608;DHT22;53462;39.616;8.824;2024-01-11T13:39:12;17.20;64.50
66608;DHT22;53462;39.616;8.824;2024-01-11T13:41:39;17.30;64.40
66608;DHT22;53462;39.616;8.824;2024-01-11T13:44:06;17.40;64.30
66608;DHT22;53462;39.616;8.824;2024-01-11T13:46:32;17.50;62.20
66608;DHT22;53462;39.616;8.824;2024-01-11T13:48:58;16.90;63.70
66608;DHT22;53462;39.616;8.824;2024-01-11T13:51:24;16.80;64.00
66608;DHT22;53462;39.616;8.824;2024-01-11T13:53:50;16.70;62.90
66608;DHT22;53462;39.616;8.824;2024-01-11T13:56:16;17.50;61.10
66608;DHT22;53462;39.616;8.824;2024-01-11T13:58:42;18.20;58.50
66608;DHT22;53462;39.616;8.824;2024-01-11T14:01:10;18.10;57.20
66608;DHT22;53462;39.616;8.824;2024-01-11T14:03:36;17.30;60.20
66608;DHT22;53462;39.616;8.824;2024-01-11T14:06:03;16.60;64.10
66608;DHT22;53462;39.616;8.824;2024-01-11T14:08:29;16.00;66.70
66608;DHT22;53462;39.616;8.824;2024-01-11T14:10:54;15.60;68.50
66608;DHT22;53462;39.616;8.824;2024-01-11T14:13:20;15.70;70.00
66608;DHT22;53462;39.616;8.824;2024-01-11T14:15:46;16.20;69.60
66608;DHT22;53462;39.616;8.824;2024-01-11T14:18:13;16.60;67.70
66608;DHT22;53462;39.616;8.824;2024-01-11T14:20:39;16.30;68.80
66608;DHT22;53462;39.616;8.824;2024-01-11T14:23:05;16.20;68.50
66608;DHT22;53462;39.616;8.824;2024-01-11T14:25:31;16.60;66.20
66608;DHT22;53462;39.616;8.824;2024-01-11T14:27:57;16.90;64.40
66608;DHT22;53462;39.616;8.824;2024-01-11T14:30:23;16.80;63.10
66608;DHT22;53462;39.616;8.824;2024-01-11T14:32:49;17.70;63.20
66608;DHT22;53462;39.616;8.824;2024-01-11T14:35:15;17.10;61.80
66608;DHT22;53462;39.616;8.824;2024-01-11T14:37:43;16.20;66.40
66608;DHT22;53462;39.616;8.824;2024-01-11T14:40:10;15.60;69.70
66608;DHT22;53462;39.616;8.824;2024-01-11T14:42:37;15.40;72.80
66608;DHT22;53462;39.616;8.824;2024-01-11T14:45:04;15.10;75.40
66608;DHT22;53462;39.616;8.824;2024-01-11T14:47:30;14.80;77.80
66608;DHT22;53462;39.616;8.824;2024-01-11T14:49:59;14.60;77.30
66608;DHT22;53462;39.616;8.824;2024-01-11T14:52:25;14.40;77.70
66608;DHT22;53462;39.616;8.824;2024-01-11T14:54:52;14.40;77.40
66608;DHT22;53462;39.616;8.824;2024-01-11T14:57:17;14.40;77.80
66608;DHT22;53462;39.616;8.824;2024-01-11T14:59:45;14.30;78.50
66608;DHT22;53462;39.616;8.824;2024-01-11T15:02:11;14.30;79.10
66608;DHT22;53462;39.616;8.824;2024-01-11T15:04:37;14.40;78.30
66608;DHT22;53462;39.616;8.824;2024-01-11T15:07:04;14.30;78.80
66608;DHT22;53462;39.616;8.824;2024-01-11T15:09:30;14.00;80.20
66608;DHT22;53462;39.616;8.824;2024-01-11T15:11:56;13.90;82.60
66608;DHT22;53462;39.616;8.824;2024-01-11T15:14:22;13.80;83.60
66608;DHT22;53462;39.616;8.824;2024-01-11T15:16:48;13.80;84.50
66608;DHT22;53462;39.616;8.824;2024-01-11T15:19:15;13.60;85.20
66608;DHT22;53462;39.616;8.824;2024-01-11T15:21:41;13.50;86.80
66608;DHT22;53462;39.616;8.824;2024-01-11T15:24:07;13.50;88.80
66608;DHT22;53462;39.616;8.824;2024-01-11T15:26:33;13.60;89.90
66608;DHT22;53462;39.616;8.824;2024-01-11T15:28:59;13.60;91.00
66608;DHT22;53462;39.616;8.824;2024-01-11T15:31:25;13.70;92.00
66608;DHT22;53462;39.616;8.824;2024-01-11T15:33:52;13.60;92.70
66608;DHT22;53462;39.616;8.824;2024-01-11T15:36:18;13.40;93.50
66608;DHT22;53462;39.616;8.824;2024-01-11T15:38:44;13.30;94.40
66608;DHT22;53462;39.616;8.824;2024-01-11T15:41:10;13.30;95.10